createdAt,value
2023-02-07T00:01:12.997Z,-0.30
2023-02-07T00:03:41.278Z,-0.30
2023-02-07T00:06:31.079Z,-0.40
2023-02-07T00:09:04.261Z,-0.50
2023-02-07T00:11:32.344Z,-0.50
2023-02-07T00:14:01.317Z,-0.50
2023-02-07T00:16:29.562Z,-0.50
2023-02-07T00:18:59.957Z,-0.50
2023-02-07T00:21:28.889Z,-0.50
2023-02-07T00:23:57.345Z,-0.40
2023-02-07T00:26:27.047Z,-0.50
2023-02-07T00:28:55.524Z,-0.60
2023-02-07T00:31:26.239Z,-0.60
2023-02-07T00:33:56.538Z,-0.70
2023-02-07T00:36:25.658Z,-0.70
2023-02-07T00:39:00.064Z,-0.80
2023-02-07T00:41:28.773Z,-0.80
2023-02-07T00:43:56.473Z,-0.80
2023-02-07T00:46:25.000Z,-0.90
2023-02-07T00:48:55.111Z,-0.90
2023-02-07T00:51:25.720Z,-0.90
2023-02-07T00:53:56.719Z,-0.90
2023-02-07T00:56:27.250Z,-0.90
2023-02-07T00:58:55.014Z,-0.90
2023-02-07T01:01:24.604Z,-1.00
2023-02-07T01:03:52.384Z,-0.90
2023-02-07T01:06:21.081Z,-0.80
2023-02-07T01:08:48.737Z,-1.00
2023-02-07T01:11:18.762Z,-1.00
2023-02-07T01:13:46.460Z,-1.00
2023-02-07T01:16:19.504Z,-0.90
2023-02-07T01:18:47.900Z,-0.90
2023-02-07T01:21:20.620Z,-0.90
2023-02-07T01:23:48.368Z,-0.90
2023-02-07T01:26:16.041Z,-0.90
2023-02-07T01:28:43.845Z,-0.90
2023-02-07T01:31:13.549Z,-0.90
2023-02-07T01:33:41.333Z,-0.90
2023-02-07T01:36:10.821Z,-0.90
2023-02-07T01:38:38.565Z,-0.80
2023-02-07T01:41:07.575Z,-0.80
2023-02-07T01:43:35.700Z,-0.70
2023-02-07T01:46:03.296Z,-0.70
2023-02-07T01:48:37.480Z,-0.70
2023-02-07T01:51:07.899Z,-0.70
2023-02-07T01:53:38.498Z,-0.70
2023-02-07T01:56:13.420Z,-0.70
2023-02-07T01:58:45.253Z,-0.60
2023-02-07T02:01:22.648Z,-0.60
2023-02-07T02:03:53.503Z,-0.60
2023-02-07T02:06:22.302Z,-0.60
2023-02-07T02:08:51.649Z,-0.60
2023-02-07T02:11:40.890Z,-0.60
2023-02-07T02:14:39.545Z,-0.60
2023-02-07T02:17:13.674Z,-0.60
2023-02-07T02:19:56.669Z,-0.60
2023-02-07T02:23:04.106Z,-0.60
2023-02-07T02:25:41.197Z,-0.60
2023-02-07T02:28:19.534Z,-0.50
2023-02-07T02:31:08.790Z,-0.50
2023-02-07T02:33:43.136Z,-0.50
2023-02-07T02:36:13.759Z,-0.50
2023-02-07T02:39:03.038Z,-0.50
2023-02-07T02:42:01.297Z,-0.50
2023-02-07T02:44:42.002Z,-0.40
2023-02-07T02:47:11.026Z,-0.40
2023-02-07T02:49:39.422Z,-0.40
2023-02-07T02:52:07.985Z,-0.40
2023-02-07T02:54:39.840Z,-0.40
2023-02-07T02:57:37.576Z,-0.40
2023-02-07T03:00:50.177Z,-0.50
2023-02-07T03:03:49.256Z,-0.50
2023-02-07T03:06:19.937Z,-0.60
2023-02-07T03:08:54.141Z,-0.70
2023-02-07T03:11:24.296Z,-0.70
2023-02-07T03:14:20.067Z,-0.80
2023-02-07T03:17:06.725Z,-0.80
2023-02-07T03:19:43.164Z,-0.90
2023-02-07T03:22:13.697Z,-0.90
2023-02-07T03:24:48.975Z,-0.90
2023-02-07T03:27:19.946Z,-0.90
2023-02-07T03:29:50.701Z,-0.90
2023-02-07T03:32:20.674Z,-0.90
2023-02-07T03:34:55.330Z,-0.90
2023-02-07T03:37:34.264Z,-1.00
2023-02-07T03:40:02.483Z,-1.10
2023-02-07T03:42:41.948Z,-1.10
2023-02-07T03:45:15.651Z,-1.10
2023-02-07T03:47:44.463Z,-1.10
2023-02-07T03:50:13.251Z,-1.10
2023-02-07T03:52:40.969Z,-1.10
2023-02-07T03:55:09.131Z,-1.10
2023-02-07T03:57:36.928Z,-1.10
2023-02-07T04:00:06.288Z,-1.20
2023-02-07T04:02:40.815Z,-1.20
2023-02-07T04:05:08.670Z,-1.20
2023-02-07T04:07:36.212Z,-1.20
2023-02-07T04:10:05.340Z,-1.20
2023-02-07T04:12:33.008Z,-1.20
2023-02-07T04:15:01.576Z,-1.20
2023-02-07T04:17:31.291Z,-1.20
2023-02-07T04:20:01.715Z,-1.40
2023-02-07T04:22:29.866Z,-1.40
2023-02-07T04:24:57.577Z,-1.40
2023-02-07T04:27:25.550Z,-1.50
2023-02-07T04:29:53.143Z,-1.50
2023-02-07T04:32:20.991Z,-1.60
2023-02-07T04:34:48.540Z,-1.60
2023-02-07T04:37:16.085Z,-1.60
2023-02-07T04:39:43.694Z,-1.60
2023-02-07T04:42:11.326Z,-1.50
2023-02-07T04:44:38.988Z,-1.70
2023-02-07T04:47:06.531Z,-1.70
2023-02-07T04:49:34.903Z,-1.10
2023-02-07T04:52:02.554Z,-1.70
2023-02-07T04:54:30.223Z,-1.60
2023-02-07T04:56:57.780Z,-1.60
2023-02-07T04:59:25.449Z,-1.70
2023-02-07T05:01:52.963Z,-1.70
2023-02-07T05:04:20.673Z,-1.60
2023-02-07T05:06:48.292Z,-1.70
2023-02-07T05:09:15.952Z,-0.70
2023-02-07T05:11:43.552Z,-1.80
2023-02-07T05:14:11.248Z,-1.90
2023-02-07T05:16:38.820Z,-1.90
2023-02-07T05:19:06.433Z,-1.80
2023-02-07T05:21:34.032Z,-1.80
2023-02-07T05:24:01.652Z,-1.80
2023-02-07T05:26:29.221Z,-1.80
2023-02-07T05:28:56.773Z,-1.90
2023-02-07T05:31:44.622Z,-1.90
2023-02-07T05:34:12.468Z,-1.90
2023-02-07T05:36:40.857Z,-1.90
2023-02-07T05:39:08.472Z,-2.00
2023-02-07T05:41:36.004Z,-2.00
2023-02-07T05:44:03.629Z,-2.00
2023-02-07T05:46:31.172Z,-2.00
2023-02-07T05:48:58.809Z,-2.10
2023-02-07T05:51:26.396Z,-2.10
2023-02-07T05:53:55.312Z,-2.10
2023-02-07T05:56:22.858Z,-2.10
2023-02-07T05:58:50.429Z,-2.20
2023-02-07T06:01:19.294Z,-2.10
2023-02-07T06:03:46.913Z,-2.20
2023-02-07T06:06:14.482Z,-2.20
2023-02-07T06:08:42.133Z,-2.30
2023-02-07T06:11:09.725Z,-2.30
2023-02-07T06:13:38.123Z,-2.30
2023-02-07T06:16:05.946Z,-2.30
2023-02-07T06:18:33.476Z,-2.30
2023-02-07T06:21:01.084Z,-2.30
2023-02-07T06:23:28.684Z,-2.30
2023-02-07T06:25:56.488Z,-2.30
2023-02-07T06:28:24.181Z,-2.30
2023-02-07T06:30:53.270Z,-2.40
2023-02-07T06:33:21.029Z,-2.30
2023-02-07T06:35:48.892Z,-2.30
2023-02-07T06:38:17.901Z,-1.40
2023-02-07T06:40:46.003Z,-2.30
2023-02-07T06:43:13.524Z,-2.30
2023-02-07T06:45:41.386Z,-2.30
2023-02-07T06:48:09.256Z,-2.20
2023-02-07T06:50:37.098Z,-2.20
2023-02-07T06:53:05.127Z,-2.20
2023-02-07T06:55:37.002Z,-2.20
2023-02-07T06:58:06.203Z,-2.20
2023-02-07T07:00:34.024Z,-2.30
2023-02-07T07:03:01.919Z,-2.20
2023-02-07T07:05:30.042Z,-2.20
2023-02-07T07:07:58.329Z,-2.30
2023-02-07T07:10:25.951Z,-2.40
2023-02-07T07:12:53.528Z,-2.40
2023-02-07T07:15:21.169Z,-2.40
2023-02-07T07:17:48.700Z,-2.40
2023-02-07T07:20:16.437Z,-2.40
2023-02-07T07:22:44.112Z,-2.40
2023-02-07T07:25:12.024Z,-2.40
2023-02-07T07:27:40.035Z,-2.40
2023-02-07T07:30:10.608Z,-2.30
2023-02-07T07:32:38.942Z,-2.30
2023-02-07T07:35:07.810Z,-2.40
2023-02-07T07:37:35.441Z,-2.40
2023-02-07T07:40:04.851Z,-2.40
2023-02-07T07:42:32.437Z,-2.40
2023-02-07T07:45:11.044Z,-2.40
2023-02-07T07:47:38.832Z,-2.40
2023-02-07T07:50:07.697Z,-2.40
2023-02-07T07:52:35.492Z,-2.30
2023-02-07T07:55:03.142Z,-2.30
2023-02-07T07:57:30.864Z,-2.20
2023-02-07T07:59:58.678Z,-2.20
2023-02-07T08:02:26.387Z,-2.20
2023-02-07T08:04:54.041Z,-2.10
2023-02-07T08:07:21.693Z,-2.00
2023-02-07T08:09:49.242Z,-1.90
2023-02-07T08:12:16.830Z,-1.90
2023-02-07T08:14:44.393Z,-1.80
2023-02-07T08:17:11.978Z,-1.70
2023-02-07T08:19:39.930Z,-1.50
2023-02-07T08:22:07.564Z,-1.40
2023-02-07T08:24:36.106Z,-1.10
2023-02-07T08:27:04.506Z,-0.90
2023-02-07T08:29:32.290Z,-0.50
2023-02-07T08:31:59.932Z,-0.30
2023-02-07T08:34:28.948Z,0.00
2023-02-07T08:36:56.865Z,0.30
2023-02-07T08:39:24.535Z,0.90
2023-02-07T08:41:52.612Z,1.00
2023-02-07T08:44:20.240Z,1.30
2023-02-07T08:46:47.748Z,1.70
2023-02-07T08:49:15.369Z,2.00
2023-02-07T08:51:42.956Z,2.40
2023-02-07T08:54:10.560Z,2.70
2023-02-07T08:56:38.302Z,3.00
2023-02-07T08:59:06.191Z,3.60
2023-02-07T09:01:33.838Z,3.70
2023-02-07T09:04:01.510Z,4.00
2023-02-07T09:06:29.259Z,4.30
2023-02-07T09:08:56.907Z,4.90
2023-02-07T09:11:24.592Z,5.00
2023-02-07T09:13:52.210Z,5.30
2023-02-07T09:16:19.861Z,5.70
2023-02-07T09:18:47.891Z,6.40
2023-02-07T09:21:16.400Z,6.40
2023-02-07T09:23:44.054Z,6.80
2023-02-07T09:26:20.353Z,7.10
2023-02-07T09:28:48.357Z,7.60
2023-02-07T09:31:16.421Z,7.70
2023-02-07T09:33:44.279Z,8.00
2023-02-07T09:36:23.627Z,8.30
2023-02-07T09:38:52.120Z,8.90
2023-02-07T09:41:44.376Z,8.90
2023-02-07T09:44:27.010Z,9.30
2023-02-07T09:47:12.056Z,9.70
2023-02-07T09:49:52.610Z,10.40
2023-02-07T09:52:33.655Z,10.60
2023-02-07T09:55:04.706Z,10.90
2023-02-07T09:57:56.634Z,11.30
2023-02-07T10:00:24.450Z,11.80
2023-02-07T10:03:08.983Z,12.10
2023-02-07T10:05:49.359Z,12.50
2023-02-07T10:08:18.886Z,13.00
2023-02-07T10:11:16.745Z,13.30
2023-02-07T10:14:02.412Z,13.60
2023-02-07T10:16:42.072Z,13.70
2023-02-07T10:19:30.080Z,13.90
2023-02-07T10:22:12.438Z,13.90
2023-02-07T10:24:57.893Z,14.10
2023-02-07T10:27:39.021Z,14.20
2023-02-07T10:30:16.992Z,14.30
2023-02-07T10:32:47.528Z,14.40
2023-02-07T10:35:37.841Z,14.60
2023-02-07T10:38:34.152Z,14.70
2023-02-07T10:41:04.436Z,14.80
2023-02-07T10:43:35.947Z,15.00
2023-02-07T10:46:07.076Z,15.20
2023-02-07T10:48:36.589Z,15.30
2023-02-07T10:51:26.619Z,15.20
2023-02-07T10:54:08.631Z,15.30
2023-02-07T10:56:44.404Z,15.40
2023-02-07T10:59:47.673Z,17.20
2023-02-07T11:02:33.272Z,15.80
2023-02-07T11:05:08.563Z,16.20
2023-02-07T11:07:47.058Z,16.50
2023-02-07T11:10:21.868Z,17.00
2023-02-07T11:12:55.217Z,17.20
2023-02-07T11:15:28.185Z,17.50
2023-02-07T11:18:08.706Z,18.20
2023-02-07T11:20:39.876Z,18.30
2023-02-07T11:23:13.869Z,18.70
2023-02-07T11:25:47.482Z,19.10
2023-02-07T11:28:30.981Z,19.40
2023-02-07T11:31:03.699Z,19.60
2023-02-07T11:33:34.704Z,19.90
2023-02-07T11:36:23.762Z,20.20
2023-02-07T11:38:55.833Z,20.30
2023-02-07T11:41:28.778Z,20.40
2023-02-07T11:44:15.097Z,20.30
2023-02-07T11:46:46.390Z,20.40
2023-02-07T11:49:41.305Z,20.80
2023-02-07T11:52:09.379Z,20.90
2023-02-07T11:54:40.088Z,21.10
2023-02-07T11:57:12.850Z,21.30
2023-02-07T11:59:50.912Z,21.60
2023-02-07T12:02:25.094Z,21.70
2023-02-07T12:04:56.738Z,22.00
2023-02-07T12:07:38.342Z,22.10
2023-02-07T12:10:13.400Z,22.50
2023-02-07T12:13:13.865Z,22.70
2023-02-07T12:15:44.683Z,23.00
2023-02-07T12:18:37.229Z,23.40
2023-02-07T12:21:26.527Z,23.40
2023-02-07T12:24:10.674Z,23.60
2023-02-07T12:27:10.316Z,23.60
2023-02-07T12:29:56.942Z,23.80
2023-02-07T12:32:42.651Z,23.80
2023-02-07T12:35:57.394Z,24.00
2023-02-07T12:38:29.168Z,23.80
2023-02-07T12:41:16.927Z,23.60
2023-02-07T12:43:51.456Z,23.40
2023-02-07T12:46:44.104Z,23.20
2023-02-07T12:49:19.412Z,22.90
2023-02-07T12:52:19.433Z,22.90
2023-02-07T12:55:08.042Z,22.80
2023-02-07T12:57:45.916Z,22.60
2023-02-07T13:00:19.645Z,22.40
2023-02-07T13:03:17.496Z,22.50
2023-02-07T13:05:47.858Z,22.40
2023-02-07T13:08:27.005Z,22.20
2023-02-07T13:11:01.923Z,22.10
2023-02-07T13:13:55.235Z,22.20
2023-02-07T13:16:39.598Z,22.50
2023-02-07T13:19:33.290Z,22.90
2023-02-07T13:22:24.604Z,22.90
2023-02-07T13:24:53.024Z,22.90
2023-02-07T13:27:22.001Z,22.80
2023-02-07T13:29:51.296Z,22.60
2023-02-07T13:32:36.847Z,22.50
2023-02-07T13:35:19.125Z,22.30
2023-02-07T13:38:14.216Z,22.40
2023-02-07T13:40:50.706Z,22.70
2023-02-07T13:43:48.222Z,22.60
2023-02-07T13:46:40.737Z,22.50
2023-02-07T13:49:37.781Z,22.30
2023-02-07T13:52:19.592Z,22.30
2023-02-07T13:55:22.760Z,22.50
2023-02-07T13:58:11.318Z,22.90
2023-02-07T14:00:48.015Z,23.10
2023-02-07T14:03:23.910Z,23.20
2023-02-07T14:06:25.840Z,23.20
2023-02-07T14:09:15.966Z,23.00
2023-02-07T14:12:23.207Z,23.10
2023-02-07T14:15:02.292Z,23.10
2023-02-07T14:17:31.518Z,23.10
2023-02-07T14:20:00.437Z,23.30
2023-02-07T14:22:28.963Z,23.40
2023-02-07T14:24:59.408Z,23.70
2023-02-07T14:27:30.069Z,23.90
2023-02-07T14:30:00.878Z,23.90
2023-02-07T14:32:32.514Z,23.80
2023-02-07T14:35:08.917Z,23.60
2023-02-07T14:38:01.087Z,23.40
2023-02-07T14:40:44.213Z,23.10
2023-02-07T14:43:11.820Z,22.90
2023-02-07T14:46:00.849Z,22.70
2023-02-07T14:48:55.091Z,22.60
2023-02-07T14:51:29.023Z,22.70
2023-02-07T14:54:05.900Z,22.60
2023-02-07T14:57:08.433Z,23.00
2023-02-07T14:59:38.868Z,22.70
2023-02-07T15:02:28.126Z,22.50
2023-02-07T15:04:56.651Z,21.40
2023-02-07T15:07:24.693Z,20.10
2023-02-07T15:09:52.356Z,18.30
2023-02-07T15:12:28.958Z,17.70
2023-02-07T15:14:57.195Z,16.90
2023-02-07T15:17:44.828Z,16.30
2023-02-07T15:20:34.116Z,15.40
2023-02-07T15:23:06.936Z,15.10
2023-02-07T15:25:36.214Z,14.70
2023-02-07T15:28:26.729Z,14.20
2023-02-07T15:31:11.281Z,13.70
2023-02-07T15:33:46.569Z,13.40
2023-02-07T15:36:29.002Z,13.20
2023-02-07T15:38:58.516Z,12.80
2023-02-07T15:41:27.617Z,12.70
2023-02-07T15:44:00.683Z,12.50
2023-02-07T15:47:05.458Z,12.40
2023-02-07T15:49:37.156Z,12.20
2023-02-07T15:52:04.862Z,12.10
2023-02-07T15:54:39.610Z,12.00
2023-02-07T15:57:20.634Z,11.90
2023-02-07T15:59:52.190Z,11.80
2023-02-07T16:02:29.879Z,11.80
2023-02-07T16:05:31.134Z,11.70
2023-02-07T16:07:59.987Z,11.60
2023-02-07T16:10:30.369Z,11.40
2023-02-07T16:13:15.229Z,11.40
2023-02-07T16:16:19.889Z,11.20
2023-02-07T16:18:48.511Z,10.90
2023-02-07T16:21:23.162Z,10.90
2023-02-07T16:23:53.429Z,10.70
2023-02-07T16:26:25.620Z,10.60
2023-02-07T16:28:53.490Z,10.20
2023-02-07T16:31:21.175Z,10.20
2023-02-07T16:33:48.857Z,10.00
2023-02-07T16:36:18.357Z,9.90
2023-02-07T16:38:46.313Z,9.70
2023-02-07T16:41:32.383Z,9.70
2023-02-07T16:44:02.453Z,9.60
2023-02-07T16:46:30.202Z,9.50
2023-02-07T16:48:57.935Z,9.50
2023-02-07T16:51:25.592Z,9.40
2023-02-07T16:53:53.417Z,9.40
2023-02-07T16:56:27.304Z,9.30
2023-02-07T16:58:55.038Z,9.10
2023-02-07T17:01:23.094Z,9.10
2023-02-07T17:03:50.807Z,9.00
2023-02-07T17:06:20.781Z,8.90
2023-02-07T17:08:49.312Z,8.70
2023-02-07T17:11:26.546Z,8.70
2023-02-07T17:13:58.552Z,8.60
2023-02-07T17:16:27.552Z,8.50
2023-02-07T17:18:55.162Z,8.40
2023-02-07T17:21:23.825Z,8.30
2023-02-07T17:23:51.846Z,8.20
2023-02-07T17:26:27.519Z,8.20
2023-02-07T17:28:55.872Z,8.10
2023-02-07T17:31:24.114Z,8.10
2023-02-07T17:33:52.318Z,8.10
2023-02-07T17:36:20.352Z,8.10
2023-02-07T17:38:48.054Z,8.00
2023-02-07T17:41:16.588Z,7.90
2023-02-07T17:43:44.916Z,7.90
2023-02-07T17:46:27.310Z,7.80
2023-02-07T17:48:55.392Z,7.60
2023-02-07T17:51:25.211Z,7.60
2023-02-07T17:53:54.298Z,7.60
2023-02-07T17:56:32.435Z,7.60
2023-02-07T17:59:02.447Z,7.70
2023-02-07T18:01:31.545Z,7.70
2023-02-07T18:03:59.269Z,7.70
2023-02-07T18:06:29.009Z,7.60
2023-02-07T18:08:58.691Z,7.50
2023-02-07T18:11:27.819Z,7.50
2023-02-07T18:13:57.187Z,7.40
2023-02-07T18:16:26.618Z,7.30
2023-02-07T18:18:56.768Z,7.20
2023-02-07T18:21:24.957Z,7.20
2023-02-07T18:23:53.474Z,7.20
2023-02-07T18:26:21.652Z,7.20
2023-02-07T18:28:49.840Z,7.20
2023-02-07T18:31:20.451Z,7.20
2023-02-07T18:33:48.825Z,7.10
2023-02-07T18:36:17.662Z,7.00
2023-02-07T18:38:45.367Z,6.90
2023-02-07T18:41:16.257Z,6.90
2023-02-07T18:43:43.881Z,6.80
2023-02-07T18:46:14.847Z,6.80
2023-02-07T18:48:44.973Z,6.60
2023-02-07T18:51:14.988Z,6.60
2023-02-07T18:53:43.509Z,6.60
2023-02-07T18:56:17.094Z,6.60
2023-02-07T18:58:46.747Z,6.50
2023-02-07T19:01:19.179Z,6.50
2023-02-07T19:03:54.154Z,6.50
2023-02-07T19:06:23.451Z,6.50
2023-02-07T19:08:51.095Z,6.40
2023-02-07T19:11:19.450Z,6.40
2023-02-07T19:13:47.357Z,6.40
2023-02-07T19:16:20.366Z,6.30
2023-02-07T19:18:49.294Z,3.90
2023-02-07T19:21:26.676Z,6.20
2023-02-07T19:23:55.872Z,6.20
2023-02-07T19:26:25.185Z,6.10
2023-02-07T19:28:53.611Z,6.00
2023-02-07T19:31:22.184Z,6.00
2023-02-07T19:33:50.673Z,6.00
2023-02-07T19:36:19.444Z,6.00
2023-02-07T19:38:48.770Z,5.90
2023-02-07T19:41:19.373Z,5.90
2023-02-07T19:43:47.719Z,5.80
2023-02-07T19:46:15.800Z,5.70
2023-02-07T19:48:44.716Z,5.50
2023-02-07T19:51:16.116Z,5.40
2023-02-07T19:53:45.288Z,5.30
2023-02-07T19:56:14.107Z,5.20
2023-02-07T19:58:47.438Z,5.00
2023-02-07T20:01:16.067Z,4.90
2023-02-07T20:03:44.512Z,4.90
2023-02-07T20:06:13.823Z,4.80
2023-02-07T20:08:41.584Z,4.60
2023-02-07T20:11:12.231Z,4.60
2023-02-07T20:13:43.377Z,4.50
2023-02-07T20:16:14.267Z,4.40
2023-02-07T20:18:43.196Z,4.30
2023-02-07T20:21:16.777Z,4.20
2023-02-07T20:23:46.820Z,4.20
2023-02-07T20:26:18.053Z,4.10
2023-02-07T20:28:46.482Z,4.00
2023-02-07T20:31:17.356Z,4.00
2023-02-07T20:33:45.855Z,4.00
2023-02-07T20:36:15.784Z,3.90
2023-02-07T20:38:45.779Z,3.70
2023-02-07T20:41:29.067Z,3.70
2023-02-07T20:44:04.772Z,3.60
2023-02-07T20:46:35.352Z,3.50
2023-02-07T20:49:09.412Z,3.40
2023-02-07T20:51:38.247Z,3.40
2023-02-07T20:54:07.413Z,3.40
2023-02-07T20:56:36.403Z,3.30
2023-02-07T20:59:05.224Z,3.30
2023-02-07T21:01:34.036Z,3.20
2023-02-07T21:04:05.242Z,3.20
2023-02-07T21:06:33.981Z,3.10
2023-02-07T21:09:04.376Z,3.00
2023-02-07T21:11:39.526Z,3.00
2023-02-07T21:14:16.301Z,2.90
2023-02-07T21:16:44.707Z,2.90
2023-02-07T21:19:13.212Z,2.80
2023-02-07T21:21:42.774Z,2.80
2023-02-07T21:24:10.796Z,2.80
2023-02-07T21:26:38.602Z,2.70
2023-02-07T21:29:07.227Z,2.60
2023-02-07T21:31:36.230Z,2.60
2023-02-07T21:34:05.325Z,2.50
2023-02-07T21:36:38.022Z,2.50
2023-02-07T21:39:12.069Z,2.50
2023-02-07T21:41:41.972Z,4.50
2023-02-07T21:44:11.139Z,2.50
2023-02-07T21:46:40.587Z,2.50
2023-02-07T21:49:19.498Z,2.50
2023-02-07T21:51:48.998Z,2.60
2023-02-07T21:54:16.915Z,2.60
2023-02-07T21:56:45.652Z,2.50
2023-02-07T21:59:15.872Z,2.40
2023-02-07T22:01:44.965Z,2.40
2023-02-07T22:04:14.257Z,2.40
2023-02-07T22:06:44.035Z,2.40
2023-02-07T22:09:14.501Z,2.40
2023-02-07T22:11:42.575Z,2.40
2023-02-07T22:14:12.106Z,2.30
2023-02-07T22:16:39.840Z,2.30
2023-02-07T22:19:08.588Z,2.10
2023-02-07T22:21:37.600Z,2.10
2023-02-07T22:24:06.418Z,2.10
2023-02-07T22:26:34.851Z,2.10
2023-02-07T22:29:04.611Z,2.10
2023-02-07T22:31:34.606Z,2.10
2023-02-07T22:34:06.089Z,2.10
2023-02-07T22:36:35.327Z,2.00
2023-02-07T22:39:04.746Z,1.90
2023-02-07T22:41:33.124Z,1.90
2023-02-07T22:44:03.987Z,1.80
2023-02-07T22:46:32.084Z,1.70
2023-02-07T22:48:59.719Z,1.60
2023-02-07T22:51:36.175Z,1.60
2023-02-07T22:54:06.771Z,1.60
2023-02-07T22:56:36.643Z,1.50
2023-02-07T22:59:05.291Z,1.50
2023-02-07T23:01:35.607Z,1.50
2023-02-07T23:04:05.120Z,1.50
2023-02-07T23:06:33.520Z,1.50
2023-02-07T23:09:01.763Z,1.40
2023-02-07T23:11:29.377Z,1.40
2023-02-07T23:13:57.174Z,1.40
2023-02-07T23:16:27.256Z,1.30
2023-02-07T23:18:56.924Z,1.30
2023-02-07T23:21:26.329Z,1.20
2023-02-07T23:23:57.189Z,1.20
2023-02-07T23:26:26.642Z,1.10
2023-02-07T23:28:54.355Z,1.10
2023-02-07T23:31:23.066Z,1.10
2023-02-07T23:33:51.766Z,1.20
2023-02-07T23:36:19.822Z,1.10
2023-02-07T23:38:48.450Z,1.00
2023-02-07T23:41:16.949Z,1.00
2023-02-07T23:43:45.160Z,1.00
2023-02-07T23:46:14.121Z,0.90
2023-02-07T23:48:41.920Z,0.90
2023-02-07T23:51:11.617Z,0.90
2023-02-07T23:53:39.186Z,0.80
2023-02-07T23:56:07.777Z,0.80
2023-02-07T23:58:35.541Z,0.80
